createdAt,value
2023-05-23T00:07:47.756Z,7.80
2023-05-23T00:12:50.351Z,7.80
2023-05-23T00:17:53.267Z,8.00
2023-05-23T00:22:58.643Z,8.20
2023-05-23T00:28:01.801Z,8.40
2023-05-23T00:33:04.512Z,8.60
2023-05-23T00:38:07.903Z,8.70
2023-05-23T00:43:10.711Z,9.00
2023-05-23T00:48:13.252Z,9.00
2023-05-23T00:53:17.034Z,8.90
2023-05-23T00:58:19.470Z,8.80
2023-05-23T01:03:23.924Z,8.80
2023-05-23T01:08:28.977Z,8.40
2023-05-23T01:13:43.004Z,8.50
2023-05-23T01:18:54.736Z,8.60
2023-05-23T01:24:06.257Z,8.50
2023-05-23T01:29:24.809Z,8.40
2023-05-23T01:34:28.842Z,8.30
2023-05-23T01:39:31.286Z,8.00
2023-05-23T01:44:35.934Z,7.90
2023-05-23T01:49:39.807Z,7.50
2023-05-23T01:54:43.850Z,7.20
2023-05-23T01:59:46.851Z,7.00
2023-05-23T02:04:49.970Z,7.00
2023-05-23T02:09:54.479Z,7.10
2023-05-23T02:14:57.266Z,7.40
2023-05-23T02:20:00.125Z,7.10
2023-05-23T02:25:02.952Z,6.90
2023-05-23T02:30:06.082Z,6.90
2023-05-23T02:35:08.891Z,6.80
2023-05-23T02:40:11.519Z,6.60
2023-05-23T02:45:14.087Z,6.70
2023-05-23T02:50:16.870Z,7.30
2023-05-23T02:55:19.823Z,7.30
2023-05-23T03:00:24.594Z,7.60
2023-05-23T03:05:30.581Z,8.00
2023-05-23T03:10:33.220Z,8.80
2023-05-23T03:15:35.851Z,9.50
2023-05-23T03:20:38.725Z,10.20
2023-05-23T03:25:42.206Z,11.10
2023-05-23T03:30:44.987Z,12.30
2023-05-23T03:35:48.277Z,13.10
2023-05-23T03:40:51.036Z,13.50
2023-05-23T03:45:53.629Z,14.60
2023-05-23T03:50:56.345Z,15.60
2023-05-23T03:55:58.929Z,16.50
2023-05-23T04:01:02.251Z,17.40
2023-05-23T04:06:06.785Z,18.20
2023-05-23T04:11:12.895Z,18.70
2023-05-23T04:16:17.525Z,19.30
2023-05-23T04:21:20.205Z,20.00
2023-05-23T04:26:31.710Z,20.30
2023-05-23T04:31:35.295Z,20.90
2023-05-23T04:36:38.268Z,21.00
2023-05-23T04:41:41.017Z,21.60
2023-05-23T04:47:09.870Z,22.10
2023-05-23T04:52:25.536Z,23.30
2023-05-23T04:57:29.133Z,23.90
2023-05-23T05:02:35.392Z,24.60
2023-05-23T05:07:38.446Z,25.40
2023-05-23T05:12:49.909Z,26.00
2023-05-23T05:17:53.904Z,26.90
2023-05-23T05:22:58.548Z,27.80
2023-05-23T05:28:06.150Z,27.70
2023-05-23T05:33:13.662Z,28.70
2023-05-23T05:38:17.006Z,28.20
2023-05-23T05:43:19.666Z,28.70
2023-05-23T05:48:23.193Z,28.50
2023-05-23T05:53:27.648Z,28.30
2023-05-23T05:58:30.462Z,28.30
2023-05-23T06:03:37.315Z,28.40
2023-05-23T06:08:41.348Z,25.20
2023-05-23T06:13:47.366Z,23.50
2023-05-23T06:18:50.320Z,22.60
2023-05-23T06:23:54.119Z,22.20
2023-05-23T06:28:56.770Z,21.80
2023-05-23T06:33:59.287Z,21.80
2023-05-23T06:39:01.830Z,21.60
2023-05-23T06:44:04.416Z,21.60
2023-05-23T06:54:16.314Z,21.70
2023-05-23T06:59:20.120Z,21.70
2023-05-23T07:04:22.985Z,21.70
2023-05-23T07:09:25.853Z,21.80
2023-05-23T07:14:38.365Z,21.70
2023-05-23T07:19:41.651Z,21.70
2023-05-23T07:24:44.493Z,21.80
2023-05-23T07:29:48.294Z,22.00
2023-05-23T07:34:51.093Z,21.90
2023-05-23T07:39:54.481Z,22.00
2023-05-23T07:44:57.275Z,22.30
2023-05-23T07:50:02.389Z,22.80
2023-05-23T07:55:06.886Z,23.00
2023-05-23T08:00:12.409Z,23.10
2023-05-23T08:05:19.331Z,23.20
2023-05-23T08:10:24.420Z,23.50
2023-05-23T08:15:28.972Z,23.70
2023-05-23T08:20:41.940Z,23.90
2023-05-23T08:25:45.699Z,23.80
2023-05-23T08:30:48.767Z,23.60
2023-05-23T08:35:51.989Z,23.60
2023-05-23T08:40:59.897Z,24.20
2023-05-23T08:46:04.701Z,24.30
2023-05-23T08:51:12.211Z,24.10
2023-05-23T08:56:16.638Z,23.90
2023-05-23T09:01:24.373Z,23.50
2023-05-23T09:06:32.368Z,23.40
2023-05-23T09:11:36.505Z,23.90
2023-05-23T09:16:48.947Z,24.30
2023-05-23T09:21:54.841Z,24.90
2023-05-23T09:27:03.144Z,25.00
2023-05-23T09:32:18.817Z,25.20
2023-05-23T09:37:24.578Z,25.80
2023-05-23T09:42:34.693Z,25.60
2023-05-23T09:47:37.594Z,25.30
2023-05-23T09:52:40.212Z,25.90
2023-05-23T09:57:44.229Z,26.60
2023-05-23T10:03:08.369Z,26.10
2023-05-23T10:08:47.090Z,25.80
2023-05-23T10:13:50.745Z,25.90
2023-05-23T10:19:03.832Z,25.80
2023-05-23T10:24:08.147Z,25.80
2023-05-23T10:29:10.935Z,26.10
2023-05-23T10:34:52.113Z,26.00
2023-05-23T10:40:18.445Z,26.40
2023-05-23T10:45:22.524Z,26.90
2023-05-23T10:50:34.149Z,26.90
2023-05-23T10:55:37.710Z,26.30
2023-05-23T11:00:47.469Z,26.10
2023-05-23T11:05:53.512Z,26.60
2023-05-23T11:11:00.990Z,25.90
2023-05-23T11:16:27.286Z,25.50
2023-05-23T11:21:31.973Z,25.20
2023-05-23T11:26:34.613Z,24.50
2023-05-23T11:31:40.737Z,24.20
2023-05-23T11:36:43.541Z,23.90
2023-05-23T11:41:50.404Z,24.00
2023-05-23T11:47:07.816Z,24.60
2023-05-23T11:52:10.475Z,25.20
2023-05-23T11:57:14.489Z,25.50
2023-05-23T12:02:17.397Z,25.40
2023-05-23T12:07:21.497Z,25.60
2023-05-23T12:12:24.149Z,25.80
2023-05-23T12:17:26.941Z,25.40
2023-05-23T12:22:30.167Z,25.40
2023-05-23T12:27:35.726Z,25.30
2023-05-23T12:32:42.749Z,24.50
2023-05-23T12:37:46.193Z,24.30
2023-05-23T12:42:54.863Z,24.50
2023-05-23T12:47:57.383Z,25.00
2023-05-23T12:53:00.176Z,25.30
2023-05-23T12:58:02.744Z,25.00
2023-05-23T13:03:06.971Z,25.10
2023-05-23T13:08:09.692Z,25.30
2023-05-23T13:13:12.448Z,25.00
2023-05-23T13:18:15.327Z,25.00
2023-05-23T13:23:18.097Z,25.00
2023-05-23T13:28:23.868Z,24.80
2023-05-23T13:33:26.448Z,24.70
2023-05-23T13:38:30.911Z,24.90
2023-05-23T13:43:33.453Z,25.20
2023-05-23T13:48:36.057Z,26.10
2023-05-23T13:53:38.738Z,25.90
2023-05-23T13:58:42.963Z,27.70
2023-05-23T14:03:45.535Z,26.70
2023-05-23T14:08:48.126Z,26.70
2023-05-23T14:13:50.838Z,26.20
2023-05-23T14:18:53.777Z,26.10
2023-05-23T14:23:56.416Z,25.80
2023-05-23T14:28:58.957Z,25.70
2023-05-23T14:34:01.658Z,25.70
2023-05-23T14:39:05.693Z,25.70
2023-05-23T14:44:09.456Z,26.40
2023-05-23T14:49:12.280Z,27.30
2023-05-23T14:54:15.979Z,27.30
2023-05-23T14:59:18.566Z,27.20
2023-05-23T15:04:21.244Z,26.90
2023-05-23T15:09:24.258Z,26.60
2023-05-23T15:14:29.811Z,26.30
2023-05-23T15:19:39.560Z,25.90
2023-05-23T15:24:42.262Z,25.50
2023-05-23T15:29:46.322Z,25.10
2023-05-23T15:34:48.990Z,25.00
2023-05-23T15:39:51.563Z,24.60
2023-05-23T15:44:54.277Z,23.90
2023-05-23T15:49:56.762Z,23.60
2023-05-23T15:54:59.371Z,23.40
2023-05-23T16:00:02.136Z,23.00
2023-05-23T16:05:14.500Z,22.70
2023-05-23T16:10:17.147Z,22.60
2023-05-23T16:15:20.196Z,22.40
2023-05-23T16:20:22.919Z,22.20
2023-05-23T16:25:25.950Z,22.00
2023-05-23T16:30:28.646Z,21.80
2023-05-23T16:35:31.654Z,21.50
2023-05-23T16:40:34.409Z,21.30
2023-05-23T16:45:38.329Z,21.40
2023-05-23T16:50:42.252Z,21.50
2023-05-23T16:55:46.200Z,21.40
2023-05-23T17:00:49.095Z,21.30
2023-05-23T17:05:51.839Z,21.10
2023-05-23T17:10:54.707Z,21.00
2023-05-23T17:15:57.519Z,20.90
2023-05-23T17:21:00.600Z,20.80
2023-05-23T17:26:03.444Z,20.70
2023-05-23T17:31:06.690Z,20.60
2023-05-23T17:36:10.653Z,20.50
2023-05-23T17:41:14.656Z,20.40
2023-05-23T17:46:17.861Z,20.20
2023-05-23T17:51:21.515Z,20.10
2023-05-23T17:56:25.366Z,20.00
2023-05-23T18:01:28.297Z,19.90
2023-05-23T18:06:31.993Z,19.80
2023-05-23T18:11:34.972Z,19.70
2023-05-23T18:16:38.469Z,19.60
2023-05-23T18:21:41.693Z,19.60
2023-05-23T18:26:45.914Z,19.50
2023-05-23T18:31:48.507Z,19.30
2023-05-23T18:36:52.119Z,19.20
2023-05-23T18:41:54.959Z,19.10
2023-05-23T18:46:57.842Z,18.90
2023-05-23T18:52:01.020Z,18.80
2023-05-23T18:57:03.966Z,18.70
2023-05-23T19:02:07.509Z,18.70
2023-05-23T19:07:11.564Z,18.70
2023-05-23T19:12:15.087Z,18.80
2023-05-23T19:17:18.052Z,18.60
2023-05-23T19:22:21.715Z,18.20
2023-05-23T19:27:24.492Z,18.00
2023-05-23T19:32:27.455Z,17.60
2023-05-23T19:37:30.454Z,17.70
2023-05-23T19:42:33.428Z,17.60
2023-05-23T19:47:36.265Z,17.50
2023-05-23T19:52:42.248Z,17.30
2023-05-23T19:57:45.555Z,17.20
2023-05-23T20:02:48.161Z,17.00
2023-05-23T20:07:55.041Z,17.10
2023-05-23T20:12:57.937Z,17.00
2023-05-23T20:18:00.731Z,17.00
2023-05-23T20:23:03.846Z,17.20
2023-05-23T20:28:06.538Z,17.20
2023-05-23T20:33:09.579Z,17.00
2023-05-23T20:38:12.711Z,16.90
2023-05-23T20:43:15.654Z,17.00
2023-05-23T20:48:18.609Z,17.00
2023-05-23T20:53:21.311Z,16.90
2023-05-23T20:58:24.066Z,16.60
2023-05-23T21:03:26.655Z,16.50
2023-05-23T21:08:29.752Z,16.50
2023-05-23T21:13:33.465Z,16.40
2023-05-23T21:18:36.067Z,16.40
2023-05-23T21:23:38.883Z,16.40
2023-05-23T21:28:41.663Z,16.40
2023-05-23T21:33:44.752Z,16.40
2023-05-23T21:38:47.368Z,16.40
2023-05-23T21:43:50.062Z,16.30
2023-05-23T21:48:54.551Z,16.10
2023-05-23T21:53:57.291Z,15.90
2023-05-23T21:58:59.877Z,15.80
2023-05-23T22:04:02.475Z,15.70
2023-05-23T22:09:11.554Z,15.80
2023-05-23T22:14:14.067Z,15.80
2023-05-23T22:19:21.116Z,15.70
2023-05-23T22:24:23.940Z,15.40
2023-05-23T22:29:27.213Z,15.40
2023-05-23T22:34:30.129Z,15.30
2023-05-23T22:39:32.691Z,15.40
2023-05-23T22:44:35.249Z,15.50
2023-05-23T22:49:37.770Z,15.50
2023-05-23T22:54:40.700Z,15.40
2023-05-23T22:59:43.281Z,15.40
2023-05-23T23:04:46.270Z,15.40
2023-05-23T23:09:49.190Z,15.30
2023-05-23T23:14:51.706Z,15.30
2023-05-23T23:19:54.875Z,15.30
2023-05-23T23:24:57.753Z,15.30
2023-05-23T23:30:01.057Z,15.30
2023-05-23T23:35:03.795Z,15.10
2023-05-23T23:40:08.439Z,15.10
2023-05-23T23:45:11.348Z,15.00
2023-05-23T23:50:14.102Z,14.90
2023-05-23T23:55:16.658Z,14.80
